Time;durP1;ratioP1;P1;durP2;ratioP2;P2;SDS_P1;SDS_P2;PMS_P1;PMS_P2;Temp;Humidity;BMP_temperature;BMP_pressure;BME280_temperature;BME280_humidity;BME280_pressure;Samples;Min_cycle;Max_cycle;Signal;HPM_P1;HPM_P2
2021/12/17 00:05:08;;;;;;;52.72;18.15;;;;;;;;;;5050243;28;20045;-67
2021/12/17 00:07:35;;;;;;;55.63;18.00;;;8.60;99.90;;;;;;5049284;28;20616;-68
2021/12/17 00:10:07;;;;;;;66.68;19.63;;;8.60;99.90;;;;;;5050172;28;20395;-67
2021/12/17 00:12:33;;;;;;;70.90;20.35;;;;;;;;;;5049913;28;20048;-67
2021/12/17 00:14:59;;;;;;;62.50;20.65;;;8.50;99.90;;;;;;5049957;28;20694;-67
2021/12/17 00:17:30;;;;;;;59.95;19.23;;;8.50;99.90;;;;;;5049683;28;20187;-68
2021/12/17 00:52:22;;;;;;;52.30;18.92;;;;;;;;;;4993492;28;20511;-69
2021/12/17 00:54:48;;;;;;;57.55;19.58;;;8.50;99.90;;;;;;4993508;28;20186;-69
2021/12/17 00:57:17;;;;;;;48.67;18.38;;;8.30;99.90;;;;;;4976960;28;20038;-69
2021/12/17 00:59:45;;;;;;;58.35;20.52;;;8.50;99.90;;;;;;4993586;28;20073;-69
2021/12/17 01:02:16;;;;;;;59.63;20.25;;;8.40;99.90;;;;;;4993308;28;20042;-69
2021/12/17 01:04:49;;;;;;;56.22;20.80;;;8.40;99.90;;;;;;4994503;28;20069;-69
2021/12/17 01:07:17;;;;;;;57.60;20.30;;;8.50;99.90;;;;;;4992975;28;20065;-70
2021/12/17 01:09:45;;;;;;;68.07;22.42;;;8.40;99.90;;;;;;4993154;28;20042;-69
2021/12/17 01:12:11;;;;;;;60.67;20.20;;;;;;;;;;4993029;28;20046;-69
2021/12/17 01:14:38;;;;;;;68.63;21.80;;;8.30;99.90;;;;;;4993036;28;20520;-69
2021/12/17 01:17:04;;;;;;;45.80;18.27;;;;;;;;;;4992737;28;20042;-69
2021/12/17 01:23:10;;;;;;;54.10;18.58;;;;;;;;;;4992991;28;20134;-69
2021/12/17 01:25:08;;;;;;;43.53;18.58;;;;;;;;;;4985728;28;20046;-69
2021/12/17 01:35:48;;;;;;;45.20;18.42;;;8.30;99.90;;;;;;4993744;28;20057;-69
2021/12/17 01:43:45;;;;;;;45.55;17.27;;;8.40;99.90;;;;;;4992401;28;20125;-69
2021/12/17 01:46:15;;;;;;;43.72;16.90;;;8.40;99.90;;;;;;4976049;28;20040;-69
2021/12/17 01:49:02;;;;;;;39.63;18.42;;;8.20;99.90;;;;;;4976847;28;20543;-69
2021/12/17 01:59:43;;;;;;;38.28;15.05;;;;;;;;;;4992210;28;20049;-70
2021/12/17 02:02:10;;;;;;;31.15;15.52;;;;;;;;;;4992143;28;20038;-69
2021/12/17 02:04:37;;;;;;;31.38;15.70;;;;;;;;;;4993289;28;20049;-69
2021/12/17 02:07:04;;;;;;;32.53;15.00;;;8.30;99.90;;;;;;4975858;28;20503;-69
2021/12/17 02:32:07;;;;;;;35.60;15.55;;;8.40;99.90;;;;;;4991414;28;20121;-69
2021/12/17 02:37:06;;;;;;;33.15;15.38;;;8.50;99.90;;;;;;4991412;28;20113;-69
2021/12/17 02:47:42;;;;;;;37.33;16.02;;;;;;;;;;4991371;28;20124;-69
2021/12/17 02:50:09;;;;;;;34.15;14.95;;;;;;;;;;4991234;28;20516;-71
2021/12/17 02:52:37;;;;;;;33.78;14.98;;;;;;;;;;4990381;28;20038;-70
2021/12/17 02:55:05;;;;;;;30.25;14.60;;;8.40;99.90;;;;;;4991212;28;20117;-69
2021/12/17 02:57:32;;;;;;;31.63;14.27;;;8.50;99.90;;;;;;4974637;28;20061;-69
2021/12/17 02:59:58;;;;;;;30.38;15.38;;;;;;;;;;4992480;28;20070;-69
2021/12/17 03:02:25;;;;;;;32.40;14.57;;;;;;;;;;4991089;28;20100;-69
2021/12/17 03:04:51;;;;;;;31.63;14.88;;;8.50;99.90;;;;;;4991343;28;20097;-69
2021/12/17 03:07:17;;;;;;;30.30;14.70;;;8.40;99.90;;;;;;4990845;28;20056;-69
2021/12/17 03:12:18;;;;;;;33.28;14.98;;;;;;;;;;4990965;28;20050;-69
2021/12/17 03:14:52;;;;;;;31.30;14.85;;;8.50;99.90;;;;;;4990995;28;20054;-69
2021/12/17 03:17:33;;;;;;;39.33;15.88;;;8.50;99.90;;;;;;4990695;28;20042;-69
2021/12/17 03:25:09;;;;;;;31.50;14.02;;;;;;;;;;4990901;28;20097;-69
2021/12/17 03:27:34;;;;;;;37.53;16.25;;;8.50;99.90;;;;;;4990594;28;20074;-69
2021/12/17 03:30:00;;;;;;;38.10;15.77;;;;;;;;;;4991098;28;20050;-69
2021/12/17 03:32:26;;;;;;;42.85;17.20;;;8.40;99.90;;;;;;4990696;28;20129;-70
2021/12/17 03:34:52;;;;;;;30.70;15.70;;;;;;;;;;4991080;28;20081;-70
2021/12/17 03:37:18;;;;;;;38.45;15.70;;;;;;;;;;4990453;28;20042;-69
2021/12/17 03:39:44;;;;;;;53.20;18.20;;;;;;;;;;4990909;28;20518;-69
2021/12/17 03:42:10;;;;;;;52.50;18.25;;;;;;;;;;4990752;28;20054;-69
2021/12/17 03:44:36;;;;;;;49.17;17.02;;;;;;;;;;4990713;28;20384;-69
2021/12/17 03:47:04;;;;;;;44.10;17.70;;;8.50;99.90;;;;;;4974129;28;20047;-69
2021/12/17 03:49:30;;;;;;;53.80;17.17;;;8.40;99.90;;;;;;4990577;28;20049;-68
2021/12/17 03:52:05;;;;;;;58.40;17.50;;;;;;;;;;4990417;28;20100;-69
2021/12/17 03:54:37;;;;;;;47.88;16.73;;;8.50;99.90;;;;;;4990647;28;20038;-70
2021/12/17 03:57:07;;;;;;;62.92;19.30;;;8.50;99.90;;;;;;4990211;28;20039;-69
2021/12/17 03:59:33;;;;;;;55.95;18.38;;;8.30;99.90;;;;;;4990702;28;20598;-69
2021/12/17 04:02:00;;;;;;;52.30;17.58;;;;;;;;;;4990364;28;20062;-70
2021/12/17 04:04:25;;;;;;;68.07;19.25;;;;;;;;;;4992019;28;20093;-71
2021/12/17 04:06:51;;;;;;;47.05;18.13;;;;;;;;;;4994039;28;20065;-68
2021/12/17 04:09:20;;;;;;;56.10;17.90;;;;;;;;;;4994596;28;20051;-69
2021/12/17 04:11:47;;;;;;;40.55;16.70;;;;;;;;;;4994037;28;20100;-70
2021/12/17 04:14:13;;;;;;;47.35;17.67;;;8.30;99.90;;;;;;4994215;28;20038;-70
2021/12/17 04:16:39;;;;;;;34.30;14.25;;;;;;;;;;4993899;28;20046;-69
2021/12/17 04:19:05;;;;;;;45.72;17.40;;;8.40;99.90;;;;;;4994342;28;20045;-69
2021/12/17 04:21:31;;;;;;;36.15;16.02;;;8.40;99.90;;;;;;4993995;28;20097;-70
2021/12/17 04:23:57;;;;;;;53.97;18.33;;;8.50;99.90;;;;;;4994031;28;20038;-69
2021/12/17 04:26:25;;;;;;;61.15;20.70;;;8.30;99.90;;;;;;4993697;28;20087;-69
2021/12/17 04:28:52;;;;;;;41.35;15.93;;;;;;;;;;4994216;28;20520;-69
2021/12/17 04:31:24;;;;;;;36.95;17.30;;;8.20;99.90;;;;;;4993981;28;20050;-69
2021/12/17 04:33:50;;;;;;;37.15;16.77;;;8.30;99.90;;;;;;4995222;28;20030;-69
2021/12/17 04:36:23;;;;;;;40.42;17.88;;;8.40;99.90;;;;;;4993620;28;20045;-69
2021/12/17 04:38:49;;;;;;;38.58;16.92;;;;;;;;;;4993751;28;20173;-69
2021/12/17 04:41:39;;;;;;;39.90;17.98;;;;;;;;;;4993880;28;20073;-69
2021/12/17 04:46:39;;;;;;;61.10;20.02;;;;;;;;;;4993351;28;20042;-71
2021/12/17 04:57:34;;;;;;;52.15;19.10;;;8.40;99.90;;;;;;4993127;28;20128;-69
2021/12/17 05:00:05;;;;;;;55.80;17.75;;;8.30;99.90;;;;;;4993245;28;20034;-69
2021/12/17 05:02:35;;;;;;;45.78;17.75;;;8.30;99.90;;;;;;4993507;28;20054;-69
2021/12/17 05:05:07;;;;;;;41.40;17.73;;;;;;;;;;4993443;28;20040;-70
2021/12/17 05:07:34;;;;;;;52.30;18.70;;;8.30;99.90;;;;;;4993341;28;20038;-70
2021/12/17 05:10:12;;;;;;;37.90;17.27;;;8.30;99.90;;;;;;4993077;28;20049;-68
2021/12/17 05:20:56;;;;;;;42.15;15.93;;;8.40;99.90;;;;;;4993230;28;20046;-69
2021/12/17 05:23:29;;;;;;;45.00;15.52;;;8.30;99.90;;;;;;4993034;28;20097;-69
2021/12/17 05:25:55;;;;;;;51.22;17.90;;;8.30;99.90;;;;;;4976720;28;20039;-69
2021/12/17 05:28:20;;;;;;;68.57;21.30;;;8.30;99.90;;;;;;4993167;28;20096;-69
2021/12/17 05:30:48;;;;;;;49.20;16.02;;;8.20;99.90;;;;;;4992891;28;20519;-69
2021/12/17 05:33:15;;;;;;;63.00;19.42;;;8.30;99.90;;;;;;4976534;28;20038;-69
2021/12/17 05:35:41;;;;;;;58.00;17.98;;;;;;;;;;4992343;28;20419;-69
2021/12/17 05:38:08;;;;;;;62.17;18.98;;;8.20;99.90;;;;;;4976587;28;20045;-66
2021/12/17 05:40:34;;;;;;;58.55;18.38;;;;;;;;;;4992722;28;20188;-69
2021/12/17 05:43:02;;;;;;;74.00;18.63;;;;;;;;;;4992838;28;20085;-68
2021/12/17 05:48:13;;;;;;;57.35;18.88;;;;;;;;;;4992599;28;20053;-69
2021/12/17 05:50:40;;;;;;;37.17;15.57;;;8.40;99.90;;;;;;4992352;28;20042;-69
2021/12/17 05:53:07;;;;;;;40.17;16.35;;;8.20;99.90;;;;;;4992337;28;20500;-69
2021/12/17 05:55:34;;;;;;;37.15;15.82;;;;;;;;;;4976106;28;20038;-69
2021/12/17 05:58:00;;;;;;;34.55;16.10;;;8.40;99.90;;;;;;4976148;28;20121;-69
2021/12/17 06:00:29;;;;;;;36.13;16.08;;;8.30;99.90;;;;;;4992225;28;20038;-69
2021/12/17 06:02:56;;;;;;;39.67;16.83;;;;;;;;;;4992330;28;20049;-69
2021/12/17 06:05:22;;;;;;;52.13;18.02;;;;;;;;;;4992107;28;20081;-69
2021/12/17 06:07:48;;;;;;;29.75;15.48;;;;;;;;;;4992387;28;20073;-69
2021/12/17 06:10:14;;;;;;;36.13;16.77;;;;;;;;;;4992043;28;20038;-69
2021/12/17 06:12:40;;;;;;;33.83;15.52;;;;;;;;;;4991846;28;20046;-69
2021/12/17 06:15:08;;;;;;;32.20;13.90;;;8.50;99.90;;;;;;4975718;28;20125;-69
2021/12/17 06:17:34;;;;;;;32.60;16.05;;;;;;;;;;4992014;28;20034;-69
2021/12/17 06:20:00;;;;;;;29.60;14.60;;;;;;;;;;4991804;28;20073;-69
2021/12/17 06:22:26;;;;;;;36.53;16.17;;;;;;;;;;4991938;28;20046;-69
2021/12/17 06:24:52;;;;;;;30.92;15.18;;;;;;;;;;4991835;28;20100;-69
2021/12/17 06:27:19;;;;;;;32.30;14.15;;;8.40;99.90;;;;;;4991110;28;20046;-69
2021/12/17 06:29:45;;;;;;;35.25;15.38;;;;;;;;;;4975468;28;20038;-68
2021/12/17 06:32:11;;;;;;;34.83;15.80;;;;;;;;;;5042371;23;20054;-68
2021/12/17 06:34:38;;;;;;;29.98;14.70;;;;;;;;;;5031545;28;20041;-69
2021/12/17 06:37:04;;;;;;;28.23;12.65;;;8.30;99.90;;;;;;5030910;28;20589;-69
2021/12/17 06:39:33;;;;;;;28.50;13.27;;;8.30;99.90;;;;;;5031472;28;20488;-69
2021/12/17 06:41:59;;;;;;;25.70;13.43;;;8.30;99.90;;;;;;5031299;28;20074;-68
2021/12/17 06:44:26;;;;;;;33.63;15.23;;;8.20;99.90;;;;;;5031389;28;20407;-69
2021/12/17 07:00:39;;;;;;;35.78;15.18;;;;;;;;;;5035784;28;20107;-68
2021/12/17 07:05:59;;;;;;;34.85;15.65;;;8.30;99.90;;;;;;5025427;28;20052;-68
2021/12/17 07:10:55;;;;;;;36.03;15.23;;;8.20;99.90;;;;;;5027613;28;20056;-68
2021/12/17 07:19:37;;;;;;;31.95;13.18;;;;;;;;;;5028616;28;20518;-69
2021/12/17 07:21:55;;;;;;;34.20;14.02;;;;;;;;;;5027206;28;20095;-70
2021/12/17 07:31:32;;;;;;;33.92;14.82;;;;;;;;;;5027294;28;20041;-70
2021/12/17 07:32:47;;;;;;;33.75;14.32;;;;;;;;;;5026803;28;20079;-71
2021/12/17 07:40:30;;;;;;;31.33;13.40;;;;;;;;;;5046818;28;20053;-77
2021/12/17 07:42:56;;;;;;;33.13;12.88;;;8.30;99.90;;;;;;5019581;28;20037;-70
2021/12/17 07:45:22;;;;;;;32.83;13.80;;;;;;;;;;5035681;28;20037;-70
2021/12/17 07:47:48;;;;;;;30.25;12.57;;;;;;;;;;5014854;28;20053;-69
2021/12/17 07:50:14;;;;;;;29.15;13.20;;;8.30;99.90;;;;;;5023801;28;20474;-71
2021/12/17 07:52:40;;;;;;;35.20;11.82;;;;;;;;;;5033674;28;20037;-70
2021/12/17 07:55:06;;;;;;;25.50;10.88;;;;;;;;;;5038161;28;20045;-69
2021/12/17 07:57:32;;;;;;;33.88;12.23;;;;;;;;;;5021936;28;20136;-71
2021/12/17 07:59:58;;;;;;;31.33;12.35;;;;;;;;;;5037895;28;20197;-72
2021/12/17 08:02:24;;;;;;;26.20;10.45;;;;;;;;;;5040917;28;20550;-71
2021/12/17 08:04:50;;;;;;;37.03;13.02;;;8.30;99.90;;;;;;5048268;28;20127;-71
2021/12/17 08:07:15;;;;;;;30.08;12.05;;;8.30;99.90;;;;;;5043934;28;20041;-71
2021/12/17 08:09:43;;;;;;;25.38;11.13;;;;;;;;;;5045811;28;20399;-69
2021/12/17 08:12:10;;;;;;;28.27;11.40;;;;;;;;;;5028848;28;20091;-70
2021/12/17 08:14:36;;;;;;;28.58;11.65;;;8.20;99.90;;;;;;5041646;28;20045;-71
2021/12/17 08:25:16;;;;;;;29.55;12.48;;;8.30;99.90;;;;;;5036534;28;20438;-71
2021/12/17 08:32:42;;;;;;;32.70;12.93;;;8.40;99.90;;;;;;5036209;28;20049;-71
2021/12/17 08:35:09;;;;;;;29.88;12.75;;;8.40;99.90;;;;;;5036239;28;20041;-71
2021/12/17 08:37:35;;;;;;;34.35;12.88;;;;;;;;;;5036025;28;20076;-71
2021/12/17 08:40:01;;;;;;;30.60;12.18;;;;;;;;;;5052929;28;20422;-71
2021/12/17 08:42:27;;;;;;;27.25;12.07;;;8.50;99.90;;;;;;5053078;28;20033;-71
2021/12/17 08:44:55;;;;;;;30.95;12.80;;;;;;;;;;5036191;28;20491;-71
2021/12/17 08:47:20;;;;;;;32.90;14.18;;;8.50;99.90;;;;;;5064272;28;20051;-69
2021/12/17 08:49:48;;;;;;;32.88;15.13;;;8.60;99.90;;;;;;5046221;28;20038;-70
2021/12/17 08:52:14;;;;;;;34.53;15.25;;;;;;;;;;5044580;28;20059;-70
2021/12/17 08:54:40;;;;;;;31.30;14.35;;;8.50;99.90;;;;;;5032559;28;20037;-70
2021/12/17 08:57:06;;;;;;;32.50;14.75;;;8.60;99.90;;;;;;5032132;28;20033;-71
2021/12/17 08:59:32;;;;;;;29.77;13.30;;;;;;;;;;5031834;28;20088;-70
2021/12/17 09:01:57;;;;;;;33.30;14.07;;;8.50;99.90;;;;;;5032348;28;20648;-69
2021/12/17 09:04:27;;;;;;;35.40;14.25;;;8.60;99.90;;;;;;5032614;28;20041;-70
2021/12/17 09:06:53;;;;;;;72.30;26.35;;;;;;;;;;5032185;28;20041;-71
2021/12/17 09:09:21;;;;;;;50.80;18.65;;;;;;;;;;5032710;28;20041;-71
2021/12/17 09:11:46;;;;;;;36.80;16.13;;;8.70;99.90;;;;;;5032533;28;20045;-71
2021/12/17 09:14:12;;;;;;;36.22;15.48;;;8.50;99.90;;;;;;5041508;28;20037;-71
2021/12/17 09:16:38;;;;;;;36.53;14.07;;;8.50;99.90;;;;;;5049982;28;20048;-70
2021/12/17 09:19:05;;;;;;;34.03;13.73;;;8.60;99.90;;;;;;5052270;28;20108;-71
2021/12/17 09:21:32;;;;;;;33.85;13.68;;;;;;;;;;5052235;28;20079;-71
2021/12/17 09:23:57;;;;;;;31.40;13.68;;;;;;;;;;5052003;28;20069;-71
2021/12/17 09:26:23;;;;;;;34.92;13.70;;;8.40;99.90;;;;;;5051907;28;20526;-71
2021/12/17 09:28:50;;;;;;;30.05;12.95;;;8.60;99.90;;;;;;5052701;28;20044;-71
2021/12/17 09:31:16;;;;;;;32.33;12.77;;;8.60;99.90;;;;;;5051910;28;20380;-71
2021/12/17 09:33:45;;;;;;;33.92;12.93;;;8.50;99.90;;;;;;5035574;28;20086;-71
2021/12/17 09:36:11;;;;;;;30.65;12.30;;;;;;;;;;5051818;28;20045;-71
2021/12/17 09:38:37;;;;;;;39.10;14.40;;;;;;;;;;5052277;28;20044;-71
2021/12/17 09:41:04;;;;;;;34.45;13.05;;;8.70;99.90;;;;;;5051483;28;20094;-71
2021/12/17 09:43:30;;;;;;;29.30;13.52;;;;;;;;;;5052353;28;20083;-71
2021/12/17 09:45:57;;;;;;;30.23;13.38;;;8.70;99.90;;;;;;5051695;28;20072;-71
2021/12/17 09:48:23;;;;;;;32.42;13.50;;;;;;;;;;5051961;28;20052;-71
2021/12/17 09:50:52;;;;;;;28.98;12.35;;;8.90;99.90;;;;;;5031831;28;20048;-71
2021/12/17 09:53:18;;;;;;;28.67;14.05;;;;;;;;;;5031824;28;20041;-71
2021/12/17 09:55:44;;;;;;;26.50;12.88;;;;;;;;;;5048235;28;20191;-71
2021/12/17 09:58:10;;;;;;;28.25;12.98;;;8.90;99.90;;;;;;5048458;28;20052;-71
2021/12/17 10:00:36;;;;;;;27.63;13.23;;;;;;;;;;5030725;28;20423;-71
2021/12/17 10:03:06;;;;;;;33.42;12.85;;;8.90;99.90;;;;;;5047488;28;20049;-72
2021/12/17 10:05:35;;;;;;;30.45;13.45;;;8.90;99.90;;;;;;5038383;28;20033;-71
2021/12/17 10:08:21;;;;;;;34.50;12.80;;;9.00;99.90;;;;;;5019863;28;20052;-71
2021/12/17 10:10:55;;;;;;;31.58;13.15;;;8.90;99.90;;;;;;5031688;28;20128;-71
2021/12/17 10:13:28;;;;;;;32.05;14.30;;;8.80;99.90;;;;;;5030629;28;20050;-71
2021/12/17 10:16:12;;;;;;;28.10;13.50;;;9.20;99.90;;;;;;5030010;28;20052;-71
2021/12/17 10:18:45;;;;;;;29.10;12.88;;;9.00;99.90;;;;;;5048370;28;20103;-71
2021/12/17 10:21:16;;;;;;;29.10;14.20;;;9.00;99.90;;;;;;5031281;28;20041;-71
2021/12/17 10:23:43;;;;;;;27.23;13.43;;;9.00;99.90;;;;;;5031389;28;20144;-71
2021/12/17 10:26:15;;;;;;;31.27;12.93;;;9.00;99.90;;;;;;5047713;28;20045;-71
2021/12/17 10:28:57;;;;;;;24.60;11.73;;;9.10;99.90;;;;;;5031542;28;20077;-71
2021/12/17 10:31:23;;;;;;;26.90;11.80;;;;;;;;;;5030391;28;20127;-71
2021/12/17 10:33:51;;;;;;;34.30;14.05;;;9.20;99.90;;;;;;5043668;28;20046;-70
2021/12/17 10:36:16;;;;;;;27.30;13.75;;;9.20;99.90;;;;;;5044186;28;20050;-70
2021/12/17 10:38:46;;;;;;;27.92;13.50;;;9.10;99.90;;;;;;5011448;28;20129;-71
2021/12/17 10:41:15;;;;;;;27.15;11.77;;;9.20;99.90;;;;;;5045837;28;20045;-71
2021/12/17 10:43:48;;;;;;;25.80;11.65;;;9.20;99.90;;;;;;5030866;28;20054;-71
2021/12/17 10:49:17;;;;;;;28.63;11.25;;;9.10;99.90;;;;;;5047301;28;20049;-71
2021/12/17 10:51:46;;;;;;;26.40;11.18;;;9.30;99.90;;;;;;5023665;28;20045;-70
2021/12/17 10:54:20;;;;;;;28.67;12.52;;;9.10;99.90;;;;;;5013568;28;20498;-71
2021/12/17 10:56:51;;;;;;;29.60;12.55;;;9.20;99.90;;;;;;5029657;28;20038;-70
2021/12/17 10:59:34;;;;;;;27.95;14.07;;;9.10;99.90;;;;;;5029866;28;20049;-71
2021/12/17 11:02:06;;;;;;;21.77;11.88;;;9.30;99.90;;;;;;5042889;28;20048;-71
2021/12/17 11:04:33;;;;;;;28.92;13.20;;;9.20;99.90;;;;;;5029480;28;20048;-71
2021/12/17 11:06:59;;;;;;;24.52;10.70;;;;;;;;;;5028063;28;20033;-70
2021/12/17 11:09:47;;;;;;;24.02;12.02;;;9.40;99.90;;;;;;5029850;28;20038;-72
2021/12/17 11:12:34;;;;;;;19.15;9.55;;;9.30;99.90;;;;;;5033289;28;20551;-72
2021/12/17 11:15:19;;;;;;;22.33;11.93;;;9.40;99.90;;;;;;5049710;28;20631;-71
2021/12/17 11:17:47;;;;;;;23.98;12.65;;;9.30;99.90;;;;;;5029992;28;20043;-70
2021/12/17 11:20:23;;;;;;;22.05;11.77;;;;;;;;;;5025455;28;20533;-72
2021/12/17 11:22:50;;;;;;;17.63;8.80;;;9.50;99.90;;;;;;5043794;28;20048;-71
2021/12/17 11:25:18;;;;;;;21.33;10.57;;;9.40;99.90;;;;;;5027067;28;20076;-70
2021/12/17 11:27:44;;;;;;;18.30;9.13;;;9.30;99.90;;;;;;5027001;28;20045;-71
2021/12/17 11:30:15;;;;;;;18.25;9.45;;;9.40;99.90;;;;;;5026854;28;20071;-72
2021/12/17 11:32:44;;;;;;;21.38;9.50;;;9.40;99.90;;;;;;5028199;28;20045;-77
2021/12/17 11:35:11;;;;;;;18.92;9.63;;;9.30;99.90;;;;;;5027717;28;20037;-72
2021/12/17 11:37:41;;;;;;;18.50;9.68;;;9.40;99.90;;;;;;5029084;28;20116;-71
2021/12/17 11:40:16;;;;;;;17.73;9.30;;;9.60;99.90;;;;;;5030328;28;20564;-71
2021/12/17 11:43:01;;;;;;;14.90;8.45;;;9.50;99.90;;;;;;5031172;28;20041;-71
2021/12/17 11:45:29;;;;;;;13.85;7.57;;;9.50;99.90;;;;;;5030025;28;20041;-71
2021/12/17 11:48:13;;;;;;;15.98;8.93;;;9.50;99.90;;;;;;5029987;28;20049;-71
2021/12/17 11:50:39;;;;;;;13.77;8.18;;;9.50;99.90;;;;;;5029915;28;20045;-71
2021/12/17 11:53:18;;;;;;;15.93;8.10;;;9.40;99.90;;;;;;5029922;28;20034;-71
2021/12/17 11:55:46;;;;;;;16.08;8.20;;;9.40;99.90;;;;;;5029971;28;20124;-71
2021/12/17 11:58:15;;;;;;;15.13;8.15;;;9.50;99.90;;;;;;5013581;28;20124;-71
2021/12/17 12:00:41;;;;;;;14.68;8.35;;;9.50;99.90;;;;;;5030051;28;20037;-70
2021/12/17 12:03:21;;;;;;;15.23;7.88;;;9.50;99.90;;;;;;5030092;28;20064;-71
2021/12/17 12:05:50;;;;;;;11.07;7.57;;;9.60;99.90;;;;;;5029765;28;20107;-70
2021/12/17 12:08:33;;;;;;;12.52;8.07;;;9.40;99.90;;;;;;5030251;28;20402;-70
2021/12/17 12:11:10;;;;;;;13.10;8.02;;;9.40;99.90;;;;;;5030060;28;20049;-71
2021/12/17 12:13:44;;;;;;;14.98;8.38;;;9.40;99.90;;;;;;5024414;28;20033;-71
2021/12/17 12:16:31;;;;;;;14.07;8.07;;;9.50;99.90;;;;;;5029648;28;20045;-71
2021/12/17 12:19:10;;;;;;;12.30;8.52;;;9.50;99.90;;;;;;5012860;28;20041;-71
2021/12/17 12:21:38;;;;;;;13.27;8.48;;;9.40;99.90;;;;;;5029681;28;20045;-71
2021/12/17 12:24:10;;;;;;;17.20;9.00;;;9.50;99.90;;;;;;5030036;28;20407;-70
2021/12/17 12:26:49;;;;;;;14.47;8.57;;;9.50;99.90;;;;;;5032731;28;20487;-71
2021/12/17 12:29:23;;;;;;;16.70;9.60;;;9.40;99.90;;;;;;5033757;28;20406;-71
2021/12/17 12:32:11;;;;;;;19.58;9.73;;;9.40;99.90;;;;;;5050181;22;20061;-68
2021/12/17 12:34:40;;;;;;;14.48;8.93;;;9.60;99.90;;;;;;5014258;28;20096;-68
2021/12/17 12:37:08;;;;;;;14.15;9.20;;;9.40;99.90;;;;;;5012665;28;20062;-68
2021/12/17 12:39:38;;;;;;;13.45;8.80;;;9.50;99.90;;;;;;5013017;28;20117;-69
2021/12/17 12:42:12;;;;;;;13.82;8.80;;;9.60;99.90;;;;;;5013459;28;20132;-69
2021/12/17 12:44:44;;;;;;;;;;;9.60;99.90;;;;;;4997552;28;20042;-69
2021/12/17 12:47:12;;;;;;;11.05;6.95;;;9.30;99.90;;;;;;5013084;28;19923;-69
2021/12/17 12:50:08;;;;;;;13.93;7.45;;;9.60;99.90;;;;;;5001698;28;20033;-69
2021/12/17 12:52:39;;;;;;;9.13;6.47;;;9.40;99.90;;;;;;5002458;28;20036;-68
2021/12/17 12:55:20;;;;;;;11.50;7.47;;;9.60;99.90;;;;;;5033902;28;20499;-69
2021/12/17 12:57:52;;;;;;;11.40;7.65;;;9.40;99.90;;;;;;5032376;28;20049;-69
2021/12/17 13:00:25;;;;;;;14.40;9.20;;;9.70;99.90;;;;;;5032635;28;20101;-68
2021/12/17 13:02:56;;;;;;;13.60;8.77;;;9.60;99.90;;;;;;5024769;28;20125;-69
2021/12/17 13:05:23;;;;;;;19.02;8.90;;;9.40;99.90;;;;;;5013012;28;20103;-68
2021/12/17 13:07:55;;;;;;;13.48;8.65;;;9.50;99.90;;;;;;5012808;28;20494;-69
2021/12/17 13:10:43;;;;;;;15.25;9.00;;;9.60;99.90;;;;;;5012858;28;20046;-69
2021/12/17 13:13:28;;;;;;;9.60;6.70;;;9.70;99.90;;;;;;5012645;28;20052;-69
2021/12/17 13:16:08;;;;;;;8.93;5.93;;;9.60;99.90;;;;;;5012643;28;20046;-69
2021/12/17 13:24:09;;;;;;;11.48;6.88;;;9.50;99.90;;;;;;5012582;28;20404;-68
2021/12/17 13:26:36;;;;;;;13.05;7.45;;;9.50;99.90;;;;;;4996098;28;20518;-70
2021/12/17 13:29:07;;;;;;;13.23;7.15;;;9.60;99.90;;;;;;5012694;28;20045;-68
2021/12/17 13:31:43;;;;;;;10.57;6.85;;;9.60;99.90;;;;;;4996001;28;20388;-68
2021/12/17 13:34:13;;;;;;;12.30;7.35;;;9.60;99.90;;;;;;5012812;28;20042;-68
2021/12/17 13:37:02;;;;;;;10.60;7.07;;;9.70;99.90;;;;;;5022662;28;20033;-69
2021/12/17 13:39:32;;;;;;;11.82;7.22;;;9.60;99.90;;;;;;5032451;28;20118;-69
2021/12/17 13:41:57;;;;;;;8.55;6.63;;;9.70;99.90;;;;;;5031732;28;20116;-68
2021/12/17 13:44:37;;;;;;;7.97;6.28;;;9.50;99.90;;;;;;5031915;28;20125;-69
2021/12/17 13:47:08;;;;;;;11.13;6.68;;;9.60;99.90;;;;;;5031509;28;20045;-69
2021/12/17 13:49:34;;;;;;;12.10;6.47;;;9.50;99.90;;;;;;5022307;28;20034;-69
2021/12/17 13:52:00;;;;;;;9.88;6.72;;;9.60;99.90;;;;;;5013083;28;20440;-69
2021/12/17 13:54:26;;;;;;;10.55;7.13;;;9.40;99.90;;;;;;5013198;28;20125;-68
2021/12/17 13:56:59;;;;;;;9.52;6.72;;;9.70;99.90;;;;;;5012060;28;20038;-68
2021/12/17 13:59:36;;;;;;;8.82;5.60;;;9.60;99.90;;;;;;5013553;28;20033;-69
2021/12/17 14:02:16;;;;;;;7.88;5.80;;;9.70;99.90;;;;;;5011884;28;20060;-68
2021/12/17 14:04:58;;;;;;;9.63;6.55;;;9.80;99.90;;;;;;4992146;28;20046;-69
2021/12/17 14:07:28;;;;;;;9.18;5.93;;;9.60;99.90;;;;;;5011688;28;20054;-69
2021/12/17 14:10:14;;;;;;;9.93;6.50;;;9.60;99.90;;;;;;5002442;28;20061;-70
2021/12/17 14:12:42;;;;;;;10.85;6.78;;;9.50;99.90;;;;;;5008402;28;20034;-70
2021/12/17 14:15:13;;;;;;;10.52;6.72;;;;;;;;;;5041708;28;20407;-69
2021/12/17 14:17:44;;;;;;;9.95;6.80;;;9.60;99.90;;;;;;5007858;28;20476;-70
2021/12/17 14:20:17;;;;;;;10.02;6.28;;;9.50;99.90;;;;;;4995539;28;20048;-69
2021/12/17 14:22:45;;;;;;;9.10;5.95;;;9.60;99.90;;;;;;5010913;28;20046;-69
2021/12/17 14:25:53;;;;;;;11.52;7.13;;;9.60;99.90;;;;;;5012810;28;20092;-69
2021/12/17 14:28:24;;;;;;;8.90;5.90;;;9.60;99.90;;;;;;5007875;28;20050;-70
2021/12/17 14:31:14;;;;;;;10.23;6.25;;;9.50;99.90;;;;;;4997847;28;20045;-70
2021/12/17 14:33:46;;;;;;;8.55;6.25;;;9.30;99.90;;;;;;5041371;28;20046;-68
2021/12/17 14:36:29;;;;;;;8.98;5.85;;;9.40;99.90;;;;;;5017456;28;20060;-71
2021/12/17 14:39:05;;;;;;;11.15;5.85;;;9.40;99.90;;;;;;5008550;28;20038;-68
2021/12/17 14:41:47;;;;;;;8.52;5.85;;;9.60;99.90;;;;;;4996909;28;20038;-70
2021/12/17 14:44:54;;;;;;;9.55;5.55;;;9.50;99.90;;;;;;5008300;28;20400;-70
2021/12/17 14:47:52;;;;;;;7.25;5.13;;;9.50;99.90;;;;;;4989107;28;20054;-66
2021/12/17 15:03:43;;;;;;;7.68;5.68;;;9.50;99.90;;;;;;5020136;28;20061;-71
2021/12/17 15:06:15;;;;;;;8.38;5.22;;;9.50;99.90;;;;;;4995210;28;20045;-69
2021/12/17 15:08:41;;;;;;;9.52;6.25;;;9.40;99.90;;;;;;5010576;28;20038;-69
2021/12/17 15:11:23;;;;;;;8.00;5.20;;;9.50;99.90;;;;;;5011940;28;20111;-70
2021/12/17 15:13:49;;;;;;;8.55;5.70;;;9.30;99.90;;;;;;5007470;28;20065;-69
2021/12/17 15:16:15;;;;;;;7.53;5.43;;;;;;;;;;4993798;28;20069;-69
2021/12/17 15:18:42;;;;;;;9.82;5.60;;;9.50;99.90;;;;;;5001143;28;20404;-70
2021/12/17 15:21:08;;;;;;;8.32;5.28;;;9.50;99.90;;;;;;4990547;28;20046;-69
2021/12/17 15:23:35;;;;;;;7.13;5.47;;;9.30;99.90;;;;;;4990750;28;20042;-69
2021/12/17 15:26:02;;;;;;;9.23;5.38;;;9.50;99.90;;;;;;4995190;28;20423;-70
2021/12/17 15:28:27;;;;;;;10.45;6.18;;;9.60;99.90;;;;;;5010198;28;20038;-67
2021/12/17 15:30:57;;;;;;;10.10;5.53;;;9.50;99.90;;;;;;4992589;28;20411;-70
2021/12/17 15:33:23;;;;;;;7.53;5.43;;;9.30;99.90;;;;;;4993121;28;20025;-69
2021/12/17 15:35:51;;;;;;;11.52;5.85;;;9.50;99.90;;;;;;5017476;28;20084;-69
2021/12/17 15:38:17;;;;;;;9.27;5.32;;;9.50;99.90;;;;;;5010233;28;20377;-70
2021/12/17 15:40:46;;;;;;;8.55;5.45;;;9.40;99.90;;;;;;5010212;28;20034;-69
2021/12/17 15:43:12;;;;;;;9.25;5.65;;;9.40;99.90;;;;;;5009600;28;20100;-69
2021/12/17 15:45:42;;;;;;;10.52;6.63;;;9.40;99.90;;;;;;5003683;28;20052;-70
2021/12/17 15:48:09;;;;;;;12.30;6.93;;;9.60;99.90;;;;;;4990717;28;20101;-70
2021/12/17 15:50:35;;;;;;;10.45;6.28;;;9.40;99.90;;;;;;4974709;28;20136;-71
2021/12/17 15:53:01;;;;;;;11.48;7.15;;;9.60;99.90;;;;;;5026406;28;20083;-70
2021/12/17 15:55:28;;;;;;;13.48;7.43;;;9.50;99.90;;;;;;5029324;28;20041;-67
2021/12/17 15:57:56;;;;;;;14.60;7.32;;;9.30;99.90;;;;;;5028715;28;20045;-70
2021/12/17 16:00:23;;;;;;;16.30;8.35;;;9.30;99.90;;;;;;5031307;28;20041;-70
2021/12/17 16:02:49;;;;;;;14.75;8.30;;;9.50;99.90;;;;;;5028098;28;20041;-68
2021/12/17 16:05:18;;;;;;;14.85;7.75;;;9.50;99.90;;;;;;4997718;28;20069;-70
2021/12/17 16:07:44;;;;;;;11.02;7.70;;;9.40;99.90;;;;;;5013979;28;20046;-71
2021/12/17 16:18:15;;;;;;;14.10;7.55;;;9.40;99.90;;;;;;5014979;28;20495;-66
2021/12/17 16:21:02;;;;;;;14.23;8.23;;;9.30;99.90;;;;;;4997651;28;20038;-67
2021/12/17 16:23:34;;;;;;;15.13;8.70;;;9.40;99.90;;;;;;5014015;28;20096;-67
2021/12/17 16:26:00;;;;;;;16.35;8.10;;;9.40;99.90;;;;;;5014860;28;20044;-67
2021/12/17 16:28:28;;;;;;;13.68;8.35;;;9.40;99.90;;;;;;4997383;28;20049;-67
2021/12/17 16:31:03;;;;;;;12.93;9.20;;;9.50;99.90;;;;;;5013467;28;20490;-66
2021/12/17 16:33:29;;;;;;;15.70;9.38;;;9.40;99.90;;;;;;5013195;28;20049;-68
2021/12/17 16:35:54;;;;;;;13.98;8.95;;;9.50;99.90;;;;;;5020980;28;20037;-67
2021/12/17 16:38:22;;;;;;;14.50;9.27;;;9.60;99.90;;;;;;5013301;28;20061;-67
2021/12/17 16:40:47;;;;;;;17.17;10.27;;;9.30;99.90;;;;;;5013326;28;20109;-67
2021/12/17 16:43:13;;;;;;;17.80;10.10;;;9.20;99.90;;;;;;5013249;28;20640;-67
2021/12/17 16:45:42;;;;;;;15.82;9.85;;;9.30;99.90;;;;;;5012967;28;20045;-67